sensor_id;sensor_type;location;lat;lon;timestamp;P1;durP1;ratioP1;P2;durP2;ratioP2
27560;SDS011;15003;47.476;11.990;2022-07-23T00:00:12;6.78;;;5.97;;
27560;SDS011;15003;47.476;11.990;2022-07-23T00:02:38;6.45;;;5.63;;
27560;SDS011;15003;47.476;11.990;2022-07-23T00:05:04;7.50;;;5.70;;
27560;SDS011;15003;47.476;11.990;2022-07-23T00:07:30;7.07;;;5.78;;
27560;SDS011;15003;47.476;11.990;2022-07-23T00:09:55;6.78;;;5.90;;
27560;SDS011;15003;47.476;11.990;2022-07-23T00:12:21;6.68;;;5.90;;
27560;SDS011;15003;47.476;11.990;2022-07-23T00:14:47;7.63;;;5.68;;
27560;SDS011;15003;47.476;11.990;2022-07-23T00:17:13;8.32;;;5.75;;
27560;SDS011;15003;47.476;11.990;2022-07-23T00:19:38;8.23;;;6.03;;
27560;SDS011;15003;47.476;11.990;2022-07-23T00:22:04;6.57;;;5.70;;
27560;SDS011;15003;47.476;11.990;2022-07-23T00:24:30;6.50;;;4.95;;
27560;SDS011;15003;47.476;11.990;2022-07-23T00:26:56;7.45;;;5.90;;
27560;SDS011;15003;47.476;11.990;2022-07-23T00:29:21;7.55;;;5.90;;
27560;SDS011;15003;47.476;11.990;2022-07-23T00:31:47;7.32;;;5.85;;
27560;SDS011;15003;47.476;11.990;2022-07-23T00:34:13;8.02;;;5.95;;
27560;SDS011;15003;47.476;11.990;2022-07-23T00:36:39;8.07;;;6.20;;
27560;SDS011;15003;47.476;11.990;2022-07-23T00:39:04;7.97;;;5.82;;
27560;SDS011;15003;47.476;11.990;2022-07-23T00:41:30;6.32;;;5.55;;
27560;SDS011;15003;47.476;11.990;2022-07-23T00:44:13;8.25;;;5.75;;
27560;SDS011;15003;47.476;11.990;2022-07-23T00:46:49;7.88;;;5.70;;
27560;SDS011;15003;47.476;11.990;2022-07-23T00:49:18;8.35;;;6.35;;
27560;SDS011;15003;47.476;11.990;2022-07-23T00:51:45;9.02;;;5.93;;
27560;SDS011;15003;47.476;11.990;2022-07-23T00:54:12;6.28;;;5.60;;
27560;SDS011;15003;47.476;11.990;2022-07-23T00:56:38;8.35;;;5.75;;
27560;SDS011;15003;47.476;11.990;2022-07-23T00:59:06;8.13;;;6.10;;
27560;SDS011;15003;47.476;11.990;2022-07-23T01:01:32;7.10;;;5.68;;
27560;SDS011;15003;47.476;11.990;2022-07-23T01:03:58;7.55;;;5.63;;
27560;SDS011;15003;47.476;11.990;2022-07-23T01:06:24;7.63;;;5.60;;
27560;SDS011;15003;47.476;11.990;2022-07-23T01:08:50;8.07;;;5.40;;
27560;SDS011;15003;47.476;11.990;2022-07-23T01:11:16;7.82;;;5.50;;
27560;SDS011;15003;47.476;11.990;2022-07-23T01:13:43;7.65;;;5.68;;
27560;SDS011;15003;47.476;11.990;2022-07-23T01:16:09;6.40;;;5.57;;
27560;SDS011;15003;47.476;11.990;2022-07-23T01:18:35;6.35;;;5.68;;
27560;SDS011;15003;47.476;11.990;2022-07-23T01:21:01;6.75;;;5.60;;
27560;SDS011;15003;47.476;11.990;2022-07-23T01:23:27;6.80;;;5.45;;
27560;SDS011;15003;47.476;11.990;2022-07-23T01:25:53;7.03;;;5.72;;
27560;SDS011;15003;47.476;11.990;2022-07-23T01:28:20;7.72;;;5.15;;
27560;SDS011;15003;47.476;11.990;2022-07-23T01:30:46;6.20;;;5.60;;
27560;SDS011;15003;47.476;11.990;2022-07-23T01:33:13;6.22;;;5.18;;
27560;SDS011;15003;47.476;11.990;2022-07-23T01:35:39;5.30;;;4.80;;
27560;SDS011;15003;47.476;11.990;2022-07-23T01:38:05;8.10;;;5.60;;
27560;SDS011;15003;47.476;11.990;2022-07-23T01:40:31;6.38;;;5.65;;
27560;SDS011;15003;47.476;11.990;2022-07-23T01:42:57;5.25;;;4.72;;
27560;SDS011;15003;47.476;11.990;2022-07-23T01:45:22;5.93;;;5.32;;
27560;SDS011;15003;47.476;11.990;2022-07-23T01:47:48;6.07;;;5.25;;
27560;SDS011;15003;47.476;11.990;2022-07-23T01:50:14;6.85;;;5.53;;
27560;SDS011;15003;47.476;11.990;2022-07-23T01:52:40;8.73;;;6.43;;
27560;SDS011;15003;47.476;11.990;2022-07-23T01:55:06;6.07;;;5.45;;
27560;SDS011;15003;47.476;11.990;2022-07-23T01:57:32;6.50;;;5.90;;
27560;SDS011;15003;47.476;11.990;2022-07-23T01:59:58;6.70;;;5.90;;
27560;SDS011;15003;47.476;11.990;2022-07-23T02:02:24;8.38;;;6.75;;
27560;SDS011;15003;47.476;11.990;2022-07-23T02:04:50;7.55;;;6.72;;
27560;SDS011;15003;47.476;11.990;2022-07-23T02:07:16;7.50;;;6.70;;
27560;SDS011;15003;47.476;11.990;2022-07-23T02:09:42;7.45;;;6.45;;
27560;SDS011;15003;47.476;11.990;2022-07-23T02:12:08;10.95;;;7.65;;
27560;SDS011;15003;47.476;11.990;2022-07-23T02:14:33;9.48;;;8.02;;
27560;SDS011;15003;47.476;11.990;2022-07-23T02:16:59;7.90;;;7.10;;
27560;SDS011;15003;47.476;11.990;2022-07-23T02:19:25;8.93;;;7.43;;
27560;SDS011;15003;47.476;11.990;2022-07-23T02:21:51;8.52;;;7.32;;
27560;SDS011;15003;47.476;11.990;2022-07-23T02:24:17;7.53;;;6.55;;
27560;SDS011;15003;47.476;11.990;2022-07-23T02:26:42;7.97;;;6.35;;
27560;SDS011;15003;47.476;11.990;2022-07-23T02:29:08;9.20;;;6.60;;
27560;SDS011;15003;47.476;11.990;2022-07-23T02:31:34;8.45;;;6.60;;
27560;SDS011;15003;47.476;11.990;2022-07-23T02:34:00;8.48;;;6.72;;
27560;SDS011;15003;47.476;11.990;2022-07-23T02:36:27;8.18;;;6.63;;
27560;SDS011;15003;47.476;11.990;2022-07-23T02:38:54;8.77;;;7.05;;
27560;SDS011;15003;47.476;11.990;2022-07-23T02:41:20;9.02;;;7.07;;
27560;SDS011;15003;47.476;11.990;2022-07-23T02:43:46;7.10;;;6.10;;
27560;SDS011;15003;47.476;11.990;2022-07-23T02:46:12;7.22;;;6.43;;
27560;SDS011;15003;47.476;11.990;2022-07-23T02:48:37;8.48;;;6.85;;
27560;SDS011;15003;47.476;11.990;2022-07-23T02:51:03;9.32;;;7.63;;
27560;SDS011;15003;47.476;11.990;2022-07-23T02:53:29;8.02;;;7.20;;
27560;SDS011;15003;47.476;11.990;2022-07-23T02:55:55;7.13;;;6.22;;
27560;SDS011;15003;47.476;11.990;2022-07-23T02:58:21;7.47;;;6.20;;
27560;SDS011;15003;47.476;11.990;2022-07-23T03:00:46;7.93;;;6.28;;
27560;SDS011;15003;47.476;11.990;2022-07-23T03:03:12;7.78;;;6.10;;
27560;SDS011;15003;47.476;11.990;2022-07-23T03:05:38;6.68;;;5.88;;
27560;SDS011;15003;47.476;11.990;2022-07-23T03:08:03;9.23;;;6.97;;
27560;SDS011;15003;47.476;11.990;2022-07-23T03:10:29;8.88;;;7.32;;
27560;SDS011;15003;47.476;11.990;2022-07-23T03:12:55;9.00;;;6.47;;
27560;SDS011;15003;47.476;11.990;2022-07-23T03:15:21;7.57;;;6.68;;
27560;SDS011;15003;47.476;11.990;2022-07-23T03:17:47;7.30;;;6.20;;
27560;SDS011;15003;47.476;11.990;2022-07-23T03:20:12;7.47;;;6.40;;
27560;SDS011;15003;47.476;11.990;2022-07-23T03:22:38;9.10;;;6.63;;
27560;SDS011;15003;47.476;11.990;2022-07-23T03:25:04;8.93;;;6.28;;
27560;SDS011;15003;47.476;11.990;2022-07-23T03:27:30;7.35;;;6.47;;
27560;SDS011;15003;47.476;11.990;2022-07-23T03:29:57;8.30;;;6.47;;
27560;SDS011;15003;47.476;11.990;2022-07-23T03:32:24;7.88;;;6.18;;
27560;SDS011;15003;47.476;11.990;2022-07-23T03:34:51;7.97;;;6.55;;
27560;SDS011;15003;47.476;11.990;2022-07-23T03:37:18;8.30;;;6.07;;
27560;SDS011;15003;47.476;11.990;2022-07-23T03:39:44;7.55;;;6.13;;
27560;SDS011;15003;47.476;11.990;2022-07-23T03:42:10;9.50;;;7.05;;
27560;SDS011;15003;47.476;11.990;2022-07-23T03:44:36;7.53;;;6.65;;
27560;SDS011;15003;47.476;11.990;2022-07-23T03:47:02;8.27;;;6.47;;
27560;SDS011;15003;47.476;11.990;2022-07-23T03:49:29;7.57;;;6.40;;
27560;SDS011;15003;47.476;11.990;2022-07-23T03:51:55;11.43;;;7.15;;
27560;SDS011;15003;47.476;11.990;2022-07-23T03:54:21;8.00;;;6.20;;
27560;SDS011;15003;47.476;11.990;2022-07-23T03:56:46;7.72;;;5.90;;
27560;SDS011;15003;47.476;11.990;2022-07-23T03:59:12;7.32;;;6.53;;
27560;SDS011;15003;47.476;11.990;2022-07-23T04:01:38;10.60;;;6.68;;
27560;SDS011;15003;47.476;11.990;2022-07-23T04:04:04;8.32;;;7.25;;
27560;SDS011;15003;47.476;11.990;2022-07-23T04:06:30;8.95;;;7.35;;
27560;SDS011;15003;47.476;11.990;2022-07-23T04:08:55;9.55;;;7.13;;
27560;SDS011;15003;47.476;11.990;2022-07-23T04:11:21;7.70;;;6.50;;
27560;SDS011;15003;47.476;11.990;2022-07-23T04:13:47;7.55;;;6.32;;
27560;SDS011;15003;47.476;11.990;2022-07-23T04:16:13;8.52;;;7.38;;
27560;SDS011;15003;47.476;11.990;2022-07-23T04:18:39;9.30;;;7.78;;
27560;SDS011;15003;47.476;11.990;2022-07-23T04:21:05;10.32;;;7.70;;
27560;SDS011;15003;47.476;11.990;2022-07-23T04:23:30;11.55;;;8.02;;
27560;SDS011;15003;47.476;11.990;2022-07-23T04:25:56;10.05;;;7.05;;
27560;SDS011;15003;47.476;11.990;2022-07-23T04:28:22;9.32;;;7.00;;
27560;SDS011;15003;47.476;11.990;2022-07-23T04:30:48;8.70;;;7.43;;
27560;SDS011;15003;47.476;11.990;2022-07-23T04:33:13;9.35;;;7.78;;
27560;SDS011;15003;47.476;11.990;2022-07-23T04:35:39;9.60;;;8.10;;
27560;SDS011;15003;47.476;11.990;2022-07-23T04:38:05;9.52;;;7.93;;
27560;SDS011;15003;47.476;11.990;2022-07-23T04:40:31;9.95;;;8.18;;
27560;SDS011;15003;47.476;11.990;2022-07-23T04:42:57;11.70;;;8.15;;
27560;SDS011;15003;47.476;11.990;2022-07-23T04:45:23;9.30;;;7.70;;
27560;SDS011;15003;47.476;11.990;2022-07-23T04:47:49;9.38;;;7.22;;
27560;SDS011;15003;47.476;11.990;2022-07-23T04:50:15;8.30;;;7.15;;
27560;SDS011;15003;47.476;11.990;2022-07-23T04:52:41;11.00;;;8.35;;
27560;SDS011;15003;47.476;11.990;2022-07-23T04:55:06;11.50;;;8.05;;
27560;SDS011;15003;47.476;11.990;2022-07-23T04:57:33;8.20;;;7.10;;
27560;SDS011;15003;47.476;11.990;2022-07-23T04:59:58;8.88;;;6.97;;
27560;SDS011;15003;47.476;11.990;2022-07-23T05:02:24;8.70;;;7.38;;
27560;SDS011;15003;47.476;11.990;2022-07-23T05:04:51;7.45;;;6.70;;
27560;SDS011;15003;47.476;11.990;2022-07-23T05:07:16;8.35;;;7.10;;
27560;SDS011;15003;47.476;11.990;2022-07-23T05:09:42;8.15;;;6.45;;
27560;SDS011;15003;47.476;11.990;2022-07-23T05:12:08;7.75;;;5.95;;
27560;SDS011;15003;47.476;11.990;2022-07-23T05:14:33;7.57;;;5.93;;
27560;SDS011;15003;47.476;11.990;2022-07-23T05:16:59;8.88;;;6.68;;
27560;SDS011;15003;47.476;11.990;2022-07-23T05:19:25;9.15;;;6.88;;
27560;SDS011;15003;47.476;11.990;2022-07-23T05:21:51;8.18;;;6.65;;
27560;SDS011;15003;47.476;11.990;2022-07-23T05:24:16;8.57;;;6.78;;
27560;SDS011;15003;47.476;11.990;2022-07-23T05:26:42;9.77;;;6.43;;
27560;SDS011;15003;47.476;11.990;2022-07-23T05:29:08;9.25;;;6.97;;
27560;SDS011;15003;47.476;11.990;2022-07-23T05:31:34;9.80;;;7.30;;
27560;SDS011;15003;47.476;11.990;2022-07-23T05:33:59;8.88;;;7.07;;
27560;SDS011;15003;47.476;11.990;2022-07-23T05:36:25;10.32;;;7.20;;
27560;SDS011;15003;47.476;11.990;2022-07-23T05:38:51;9.10;;;7.03;;
27560;SDS011;15003;47.476;11.990;2022-07-23T05:41:17;8.05;;;6.63;;
27560;SDS011;15003;47.476;11.990;2022-07-23T05:43:42;7.97;;;6.28;;
27560;SDS011;15003;47.476;11.990;2022-07-23T05:46:08;7.80;;;6.38;;
27560;SDS011;15003;47.476;11.990;2022-07-23T05:48:34;7.10;;;6.00;;
27560;SDS011;15003;47.476;11.990;2022-07-23T05:51:00;6.72;;;5.70;;
27560;SDS011;15003;47.476;11.990;2022-07-23T05:53:25;5.93;;;5.10;;
27560;SDS011;15003;47.476;11.990;2022-07-23T05:55:51;7.07;;;5.63;;
27560;SDS011;15003;47.476;11.990;2022-07-23T05:58:17;6.85;;;5.97;;
27560;SDS011;15003;47.476;11.990;2022-07-23T06:00:43;6.70;;;5.53;;
27560;SDS011;15003;47.476;11.990;2022-07-23T06:03:08;6.00;;;5.22;;
27560;SDS011;15003;47.476;11.990;2022-07-23T06:05:34;6.15;;;5.47;;
27560;SDS011;15003;47.476;11.990;2022-07-23T06:08:00;6.93;;;5.85;;
27560;SDS011;15003;47.476;11.990;2022-07-23T06:10:26;7.82;;;5.80;;
27560;SDS011;15003;47.476;11.990;2022-07-23T06:12:51;7.88;;;5.82;;
27560;SDS011;15003;47.476;11.990;2022-07-23T06:15:17;6.63;;;5.57;;
27560;SDS011;15003;47.476;11.990;2022-07-23T06:17:43;7.90;;;5.88;;
27560;SDS011;15003;47.476;11.990;2022-07-23T06:20:09;7.60;;;6.38;;
27560;SDS011;15003;47.476;11.990;2022-07-23T06:22:35;7.22;;;5.82;;
27560;SDS011;15003;47.476;11.990;2022-07-23T06:25:02;7.78;;;6.32;;
27560;SDS011;15003;47.476;11.990;2022-07-23T06:27:28;7.35;;;5.90;;
27560;SDS011;15003;47.476;11.990;2022-07-23T06:29:54;7.82;;;6.00;;
27560;SDS011;15003;47.476;11.990;2022-07-23T06:32:20;7.80;;;6.50;;
27560;SDS011;15003;47.476;11.990;2022-07-23T06:34:46;7.93;;;6.25;;
27560;SDS011;15003;47.476;11.990;2022-07-23T06:37:11;6.97;;;5.82;;
27560;SDS011;15003;47.476;11.990;2022-07-23T06:39:37;7.07;;;5.47;;
27560;SDS011;15003;47.476;11.990;2022-07-23T06:42:03;5.40;;;4.50;;
27560;SDS011;15003;47.476;11.990;2022-07-23T06:44:29;5.60;;;4.85;;
27560;SDS011;15003;47.476;11.990;2022-07-23T06:46:55;6.57;;;5.10;;
27560;SDS011;15003;47.476;11.990;2022-07-23T06:49:21;7.00;;;5.55;;
27560;SDS011;15003;47.476;11.990;2022-07-23T06:51:46;5.15;;;4.65;;
27560;SDS011;15003;47.476;11.990;2022-07-23T06:54:13;6.60;;;5.85;;
27560;SDS011;15003;47.476;11.990;2022-07-23T06:56:38;6.32;;;5.15;;
27560;SDS011;15003;47.476;11.990;2022-07-23T06:59:04;8.50;;;5.50;;
27560;SDS011;15003;47.476;11.990;2022-07-23T07:01:30;5.70;;;4.70;;
27560;SDS011;15003;47.476;11.990;2022-07-23T07:03:56;5.22;;;4.70;;
27560;SDS011;15003;47.476;11.990;2022-07-23T07:06:21;4.97;;;4.47;;
27560;SDS011;15003;47.476;11.990;2022-07-23T07:08:47;6.78;;;5.07;;
27560;SDS011;15003;47.476;11.990;2022-07-23T07:11:13;6.85;;;5.63;;
27560;SDS011;15003;47.476;11.990;2022-07-23T07:13:39;7.03;;;5.28;;
27560;SDS011;15003;47.476;11.990;2022-07-23T07:16:04;5.45;;;4.70;;
27560;SDS011;15003;47.476;11.990;2022-07-23T07:18:30;5.57;;;4.63;;
27560;SDS011;15003;47.476;11.990;2022-07-23T07:20:56;5.32;;;4.70;;
27560;SDS011;15003;47.476;11.990;2022-07-23T07:23:22;7.32;;;5.40;;
27560;SDS011;15003;47.476;11.990;2022-07-23T07:25:48;5.47;;;4.88;;
27560;SDS011;15003;47.476;11.990;2022-07-23T07:28:14;4.88;;;4.22;;
27560;SDS011;15003;47.476;11.990;2022-07-23T07:30:40;5.47;;;4.63;;
27560;SDS011;15003;47.476;11.990;2022-07-23T07:33:07;5.38;;;4.88;;
27560;SDS011;15003;47.476;11.990;2022-07-23T07:35:33;5.85;;;5.05;;
27560;SDS011;15003;47.476;11.990;2022-07-23T07:38:00;5.97;;;5.10;;
27560;SDS011;15003;47.476;11.990;2022-07-23T07:40:26;6.07;;;4.70;;
27560;SDS011;15003;47.476;11.990;2022-07-23T07:42:52;5.57;;;4.47;;
27560;SDS011;15003;47.476;11.990;2022-07-23T07:45:19;5.28;;;4.72;;
27560;SDS011;15003;47.476;11.990;2022-07-23T07:47:46;5.20;;;4.50;;
27560;SDS011;15003;47.476;11.990;2022-07-23T07:50:12;5.22;;;4.70;;
27560;SDS011;15003;47.476;11.990;2022-07-23T07:52:38;5.15;;;4.65;;
27560;SDS011;15003;47.476;11.990;2022-07-23T07:55:05;5.32;;;4.82;;
27560;SDS011;15003;47.476;11.990;2022-07-23T07:57:32;5.00;;;4.50;;
27560;SDS011;15003;47.476;11.990;2022-07-23T07:59:59;5.70;;;5.10;;
27560;SDS011;15003;47.476;11.990;2022-07-23T08:02:25;5.50;;;5.00;;
27560;SDS011;15003;47.476;11.990;2022-07-23T08:04:51;6.45;;;5.03;;
27560;SDS011;15003;47.476;11.990;2022-07-23T08:07:16;5.72;;;5.00;;
27560;SDS011;15003;47.476;11.990;2022-07-23T08:09:44;6.68;;;5.38;;
27560;SDS011;15003;47.476;11.990;2022-07-23T08:12:10;6.22;;;5.55;;
27560;SDS011;15003;47.476;11.990;2022-07-23T08:14:35;7.53;;;5.28;;
27560;SDS011;15003;47.476;11.990;2022-07-23T08:17:01;6.57;;;5.63;;
27560;SDS011;15003;47.476;11.990;2022-07-23T08:19:27;6.53;;;5.85;;
27560;SDS011;15003;47.476;11.990;2022-07-23T08:21:53;6.20;;;5.50;;
27560;SDS011;15003;47.476;11.990;2022-07-23T08:24:18;6.03;;;4.82;;
27560;SDS011;15003;47.476;11.990;2022-07-23T08:26:44;5.75;;;5.15;;
27560;SDS011;15003;47.476;11.990;2022-07-23T08:29:11;5.40;;;4.70;;
27560;SDS011;15003;47.476;11.990;2022-07-23T08:31:36;5.45;;;4.90;;
27560;SDS011;15003;47.476;11.990;2022-07-23T08:34:02;6.25;;;5.63;;
27560;SDS011;15003;47.476;11.990;2022-07-23T08:36:28;5.93;;;5.10;;
27560;SDS011;15003;47.476;11.990;2022-07-23T08:38:54;5.82;;;4.80;;
27560;SDS011;15003;47.476;11.990;2022-07-23T08:41:20;6.47;;;5.60;;
27560;SDS011;15003;47.476;11.990;2022-07-23T08:43:46;6.18;;;4.95;;
27560;SDS011;15003;47.476;11.990;2022-07-23T08:46:12;6.57;;;5.88;;
27560;SDS011;15003;47.476;11.990;2022-07-23T08:48:39;5.82;;;5.25;;
27560;SDS011;15003;47.476;11.990;2022-07-23T08:51:05;6.68;;;5.25;;
27560;SDS011;15003;47.476;11.990;2022-07-23T08:53:33;6.10;;;5.13;;
27560;SDS011;15003;47.476;11.990;2022-07-23T08:56:00;5.90;;;5.05;;
27560;SDS011;15003;47.476;11.990;2022-07-23T08:58:28;6.43;;;5.55;;
27560;SDS011;15003;47.476;11.990;2022-07-23T09:00:55;6.55;;;5.50;;
27560;SDS011;15003;47.476;11.990;2022-07-23T09:03:23;6.38;;;5.50;;
27560;SDS011;15003;47.476;11.990;2022-07-23T09:05:54;6.18;;;5.50;;
27560;SDS011;15003;47.476;11.990;2022-07-23T09:08:22;7.35;;;5.38;;
27560;SDS011;15003;47.476;11.990;2022-07-23T09:11:10;6.00;;;4.82;;
27560;SDS011;15003;47.476;11.990;2022-07-23T09:13:51;6.22;;;5.60;;
27560;SDS011;15003;47.476;11.990;2022-07-23T09:16:25;6.22;;;5.40;;
27560;SDS011;15003;47.476;11.990;2022-07-23T09:18:55;6.35;;;5.40;;
27560;SDS011;15003;47.476;11.990;2022-07-23T09:24:03;5.82;;;5.22;;
27560;SDS011;15003;47.476;11.990;2022-07-23T09:26:42;6.55;;;5.85;;
27560;SDS011;15003;47.476;11.990;2022-07-23T09:31:50;6.97;;;5.80;;
27560;SDS011;15003;47.476;11.990;2022-07-23T09:34:25;7.50;;;6.80;;
27560;SDS011;15003;47.476;11.990;2022-07-23T09:37:17;7.55;;;5.90;;
27560;SDS011;15003;47.476;11.990;2022-07-23T09:39:43;6.72;;;6.03;;
27560;SDS011;15003;47.476;11.990;2022-07-23T09:42:19;6.55;;;5.82;;
27560;SDS011;15003;47.476;11.990;2022-07-23T09:44:52;6.88;;;5.97;;
27560;SDS011;15003;47.476;11.990;2022-07-23T09:47:20;6.95;;;6.25;;
27560;SDS011;15003;47.476;11.990;2022-07-23T09:52:35;8.00;;;6.90;;
27560;SDS011;15003;47.476;11.990;2022-07-23T09:55:08;7.95;;;6.57;;
27560;SDS011;15003;47.476;11.990;2022-07-23T09:57:34;7.70;;;6.80;;
27560;SDS011;15003;47.476;11.990;2022-07-23T10:00:00;7.03;;;6.32;;
27560;SDS011;15003;47.476;11.990;2022-07-23T10:02:30;6.95;;;6.20;;
27560;SDS011;15003;47.476;11.990;2022-07-23T10:04:58;7.20;;;6.13;;
27560;SDS011;15003;47.476;11.990;2022-07-23T10:07:26;9.00;;;5.68;;
27560;SDS011;15003;47.476;11.990;2022-07-23T10:09:52;6.90;;;6.13;;
27560;SDS011;15003;47.476;11.990;2022-07-23T10:12:19;6.90;;;6.03;;
27560;SDS011;15003;47.476;11.990;2022-07-23T10:14:45;6.68;;;5.80;;
27560;SDS011;15003;47.476;11.990;2022-07-23T10:17:11;4.72;;;4.25;;
27560;SDS011;15003;47.476;11.990;2022-07-23T10:19:37;5.75;;;5.07;;
27560;SDS011;15003;47.476;11.990;2022-07-23T10:22:08;5.72;;;5.13;;
27560;SDS011;15003;47.476;11.990;2022-07-23T10:38:30;5.63;;;4.83;;
27560;SDS011;15003;47.476;11.990;2022-07-23T10:41:02;4.85;;;4.35;;
27560;SDS011;15003;47.476;11.990;2022-07-23T10:43:30;4.57;;;4.18;;
27560;SDS011;15003;47.476;11.990;2022-07-23T10:46:20;4.82;;;4.30;;
27560;SDS011;15003;47.476;11.990;2022-07-23T10:57:49;5.72;;;4.63;;
27560;SDS011;15003;47.476;11.990;2022-07-23T11:00:20;5.32;;;4.82;;
27560;SDS011;15003;47.476;11.990;2022-07-23T11:02:53;4.53;;;4.13;;
27560;SDS011;15003;47.476;11.990;2022-07-23T11:05:21;5.25;;;4.75;;
27560;SDS011;15003;47.476;11.990;2022-07-23T11:24:08;5.22;;;4.03;;
27560;SDS011;15003;47.476;11.990;2022-07-23T11:32:00;4.13;;;3.60;;
27560;SDS011;15003;47.476;11.990;2022-07-23T11:34:43;3.70;;;3.40;;
27560;SDS011;15003;47.476;11.990;2022-07-23T11:37:12;4.35;;;3.95;;
27560;SDS011;15003;47.476;11.990;2022-07-23T11:40:07;4.47;;;3.72;;
27560;SDS011;15003;47.476;11.990;2022-07-23T11:42:40;4.30;;;3.90;;
27560;SDS011;15003;47.476;11.990;2022-07-23T11:45:34;4.28;;;3.88;;
27560;SDS011;15003;47.476;11.990;2022-07-23T11:50:31;5.05;;;3.40;;
27560;SDS011;15003;47.476;11.990;2022-07-23T11:52:57;4.97;;;4.45;;
27560;SDS011;15003;47.476;11.990;2022-07-23T11:55:23;6.32;;;5.28;;
27560;SDS011;15003;47.476;11.990;2022-07-23T11:57:50;5.75;;;4.75;;
27560;SDS011;15003;47.476;11.990;2022-07-23T12:00:19;4.35;;;3.95;;
27560;SDS011;15003;47.476;11.990;2022-07-23T12:02:48;4.80;;;4.10;;
27560;SDS011;15003;47.476;11.990;2022-07-23T12:05:21;5.25;;;4.50;;
27560;SDS011;15003;47.476;11.990;2022-07-23T12:07:53;4.18;;;3.83;;
27560;SDS011;15003;47.476;11.990;2022-07-23T12:10:22;4.75;;;4.30;;
27560;SDS011;15003;47.476;11.990;2022-07-23T12:13:06;4.28;;;3.88;;
27560;SDS011;15003;47.476;11.990;2022-07-23T12:15:35;3.60;;;3.30;;
27560;SDS011;15003;47.476;11.990;2022-07-23T12:18:06;5.47;;;3.53;;
27560;SDS011;15003;47.476;11.990;2022-07-23T12:20:35;3.60;;;3.30;;
27560;SDS011;15003;47.476;11.990;2022-07-23T12:23:09;2.95;;;2.75;;
27560;SDS011;15003;47.476;11.990;2022-07-23T12:25:38;3.38;;;3.08;;
27560;SDS011;15003;47.476;11.990;2022-07-23T12:28:08;3.15;;;2.95;;
27560;SDS011;15003;47.476;11.990;2022-07-23T12:30:41;3.25;;;2.95;;
27560;SDS011;15003;47.476;11.990;2022-07-23T12:33:09;3.30;;;3.00;;
27560;SDS011;15003;47.476;11.990;2022-07-23T12:35:39;2.95;;;2.75;;
27560;SDS011;15003;47.476;11.990;2022-07-23T12:38:12;2.70;;;2.50;;
27560;SDS011;15003;47.476;11.990;2022-07-23T12:40:54;2.75;;;2.55;;
27560;SDS011;15003;47.476;11.990;2022-07-23T12:43:29;4.25;;;3.13;;
27560;SDS011;15003;47.476;11.990;2022-07-23T12:51:07;3.22;;;2.97;;
27560;SDS011;15003;47.476;11.990;2022-07-23T12:53:40;4.30;;;3.90;;
27560;SDS011;15003;47.476;11.990;2022-07-23T12:56:12;4.30;;;3.90;;
27560;SDS011;15003;47.476;11.990;2022-07-23T13:06:41;4.95;;;4.45;;
27560;SDS011;15003;47.476;11.990;2022-07-23T13:09:09;4.65;;;4.25;;
27560;SDS011;15003;47.476;11.990;2022-07-23T13:11:37;4.68;;;4.18;;
27560;SDS011;15003;47.476;11.990;2022-07-23T13:14:03;4.40;;;4.00;;
27560;SDS011;15003;47.476;11.990;2022-07-23T13:16:29;5.57;;;4.18;;
27560;SDS011;15003;47.476;11.990;2022-07-23T13:18:57;5.22;;;4.72;;
27560;SDS011;15003;47.476;11.990;2022-07-23T13:21:24;4.50;;;4.10;;
27560;SDS011;15003;47.476;11.990;2022-07-23T13:23:51;4.97;;;4.40;;
27560;SDS011;15003;47.476;11.990;2022-07-23T13:26:17;5.15;;;4.65;;
27560;SDS011;15003;47.476;11.990;2022-07-23T13:28:43;5.05;;;4.30;;
27560;SDS011;15003;47.476;11.990;2022-07-23T13:31:09;4.57;;;4.18;;
27560;SDS011;15003;47.476;11.990;2022-07-23T13:33:35;4.85;;;4.40;;
27560;SDS011;15003;47.476;11.990;2022-07-23T13:36:00;4.88;;;4.43;;
27560;SDS011;15003;47.476;11.990;2022-07-23T13:38:27;4.50;;;4.10;;
27560;SDS011;15003;47.476;11.990;2022-07-23T13:40:53;4.40;;;4.00;;
27560;SDS011;15003;47.476;11.990;2022-07-23T13:43:20;3.70;;;3.40;;
27560;SDS011;15003;47.476;11.990;2022-07-23T13:45:48;3.97;;;3.58;;
27560;SDS011;15003;47.476;11.990;2022-07-23T13:48:15;3.85;;;3.50;;
27560;SDS011;15003;47.476;11.990;2022-07-23T13:50:42;3.65;;;3.30;;
27560;SDS011;15003;47.476;11.990;2022-07-23T13:53:09;3.70;;;3.40;;
27560;SDS011;15003;47.476;11.990;2022-07-23T13:55:38;3.97;;;3.47;;
27560;SDS011;15003;47.476;11.990;2022-07-23T13:58:06;4.30;;;3.90;;
27560;SDS011;15003;47.476;11.990;2022-07-23T14:00:34;3.75;;;3.13;;
27560;SDS011;15003;47.476;11.990;2022-07-23T14:03:02;4.78;;;3.90;;
27560;SDS011;15003;47.476;11.990;2022-07-23T14:05:28;3.95;;;3.65;;
27560;SDS011;15003;47.476;11.990;2022-07-23T14:07:55;3.90;;;3.50;;
27560;SDS011;15003;47.476;11.990;2022-07-23T14:10:21;4.00;;;3.60;;
27560;SDS011;15003;47.476;11.990;2022-07-23T14:12:49;4.07;;;3.67;;
27560;SDS011;15003;47.476;11.990;2022-07-23T14:15:16;4.40;;;4.00;;
27560;SDS011;15003;47.476;11.990;2022-07-23T14:17:43;4.45;;;4.05;;
27560;SDS011;15003;47.476;11.990;2022-07-23T14:20:11;5.05;;;4.13;;
27560;SDS011;15003;47.476;11.990;2022-07-23T14:22:38;4.50;;;4.10;;
27560;SDS011;15003;47.476;11.990;2022-07-23T14:25:04;4.45;;;4.05;;
27560;SDS011;15003;47.476;11.990;2022-07-23T14:27:32;4.47;;;4.07;;
27560;SDS011;15003;47.476;11.990;2022-07-23T14:29:59;4.28;;;3.90;;
27560;SDS011;15003;47.476;11.990;2022-07-23T14:32:25;4.60;;;4.20;;
27560;SDS011;15003;47.476;11.990;2022-07-23T14:34:51;4.88;;;4.47;;
27560;SDS011;15003;47.476;11.990;2022-07-23T14:37:18;4.75;;;4.25;;
27560;SDS011;15003;47.476;11.990;2022-07-23T14:39:44;6.78;;;4.40;;
27560;SDS011;15003;47.476;11.990;2022-07-23T14:42:11;5.15;;;4.00;;
27560;SDS011;15003;47.476;11.990;2022-07-23T14:44:37;4.70;;;4.25;;
27560;SDS011;15003;47.476;11.990;2022-07-23T14:47:04;4.40;;;4.00;;
27560;SDS011;15003;47.476;11.990;2022-07-23T14:49:31;5.32;;;4.82;;
27560;SDS011;15003;47.476;11.990;2022-07-23T14:51:58;4.90;;;4.45;;
27560;SDS011;15003;47.476;11.990;2022-07-23T14:54:24;5.00;;;4.50;;
27560;SDS011;15003;47.476;11.990;2022-07-23T14:56:51;5.22;;;4.38;;
27560;SDS011;15003;47.476;11.990;2022-07-23T14:59:18;5.38;;;4.85;;
27560;SDS011;15003;47.476;11.990;2022-07-23T15:01:44;4.88;;;4.35;;
27560;SDS011;15003;47.476;11.990;2022-07-23T15:04:10;12.25;;;10.50;;
27560;SDS011;15003;47.476;11.990;2022-07-23T15:06:36;9.23;;;7.38;;
27560;SDS011;15003;47.476;11.990;2022-07-23T15:09:02;5.78;;;5.25;;
27560;SDS011;15003;47.476;11.990;2022-07-23T15:11:28;5.50;;;4.97;;
27560;SDS011;15003;47.476;11.990;2022-07-23T15:13:53;5.47;;;4.88;;
27560;SDS011;15003;47.476;11.990;2022-07-23T15:16:20;5.75;;;4.85;;
27560;SDS011;15003;47.476;11.990;2022-07-23T15:18:46;4.85;;;4.28;;
27560;SDS011;15003;47.476;11.990;2022-07-23T15:21:12;5.40;;;4.85;;
27560;SDS011;15003;47.476;11.990;2022-07-23T15:23:38;5.28;;;4.78;;
27560;SDS011;15003;47.476;11.990;2022-07-23T15:26:03;5.38;;;4.85;;
27560;SDS011;15003;47.476;11.990;2022-07-23T15:28:30;6.00;;;5.20;;
27560;SDS011;15003;47.476;11.990;2022-07-23T15:30:56;5.00;;;4.55;;
27560;SDS011;15003;47.476;11.990;2022-07-23T15:33:21;7.68;;;4.90;;
27560;SDS011;15003;47.476;11.990;2022-07-23T15:35:47;5.57;;;4.97;;
27560;SDS011;15003;47.476;11.990;2022-07-23T15:38:14;5.18;;;4.65;;
27560;SDS011;15003;47.476;11.990;2022-07-23T15:40:40;6.05;;;5.45;;